Time;durP1;ratioP1;P1;durP2;ratioP2;P2;SDS_P1;SDS_P2;PMS_P1;PMS_P2;Temp;Humidity;BMP_temperature;BMP_pressure;BME280_temperature;BME280_humidity;BME280_pressure;Samples;Min_cycle;Max_cycle;Signal;HPM_P1;HPM_P2
2024/01/18 00:01:09;;;;;;;8.38;5.28;;;;;;;;;;5032469;28;20045;-82
2024/01/18 00:03:50;;;;;;;4.72;4.18;;;;;;;;;;5029203;28;20037;-83
2024/01/18 00:06:25;;;;;;;14.45;4.72;;;;;;;;;;5037258;28;20039;-82
2024/01/18 00:09:01;;;;;;;5.63;4.47;;;;;;;;;;5037217;28;20057;-81
2024/01/18 00:11:29;;;;;;;11.60;4.70;;;;;;;;;;5035158;28;20121;-82
2024/01/18 00:14:00;;;;;;;5.72;4.93;;;;;;;;;;5032403;28;20022;-80
2024/01/18 00:16:26;;;;;;;5.72;4.65;;;;;;;;;;5034868;28;20033;-82
2024/01/18 00:18:57;;;;;;;6.05;4.18;;;;;;;;;;5036137;28;20040;-82
2024/01/18 00:21:25;;;;;;;10.38;5.97;;;;;;;;;;5035392;28;20029;-85
2024/01/18 00:24:01;;;;;;;7.90;4.90;;;;;;;;;;5032792;28;20053;-82
2024/01/18 00:26:31;;;;;;;6.10;3.25;;;;;;;;;;5031265;28;20029;-81
2024/01/18 00:29:05;;;;;;;4.68;3.88;;;;;;;;;;5033130;28;20592;-80
2024/01/18 00:31:31;;;;;;;6.25;4.25;;;;;;;;;;5033048;28;20036;-81
2024/01/18 00:34:05;;;;;;;6.82;4.03;;;;;;;;;;5033603;28;20377;-81
2024/01/18 00:36:30;;;;;;;14.82;4.68;;;;;;;;;;5034487;28;20033;-82
2024/01/18 00:39:08;;;;;;;6.88;5.45;;;;;;;;;;5033238;28;20045;-81
2024/01/18 00:41:34;;;;;;;8.63;5.07;;;;;;;;;;5029045;28;20080;-80
2024/01/18 00:43:59;;;;;;;3.65;3.33;;;;;;;;;;5032897;28;20021;-81
2024/01/18 00:46:25;;;;;;;7.05;3.30;;;;;;;;;;5031218;28;20029;-80
2024/01/18 00:48:53;;;;;;;5.35;2.78;;;;;;;;;;5031612;28;20037;-80
2024/01/18 00:51:19;;;;;;;1.85;1.48;;;;;;;;;;5031037;28;20500;-81
2024/01/18 00:53:44;;;;;;;6.35;3.33;;;;;;;;;;5034386;28;20077;-81
2024/01/18 00:56:16;;;;;;;2.27;2.07;;;;;;;;;;5033364;28;20128;-83
2024/01/18 00:58:44;;;;;;;1.67;1.55;;;;;;;;;;5031732;28;20317;-82
2024/01/18 01:01:10;;;;;;;3.22;2.92;;;;;;;;;;5031877;28;20113;-82
2024/01/18 01:03:39;;;;;;;3.88;2.30;;;;;;;;;;5031359;28;20108;-82
2024/01/18 01:06:27;;;;;;;7.60;2.65;;;;;;;;;;5030472;28;20053;-81
2024/01/18 01:08:53;;;;;;;5.97;3.55;;;;;;;;;;5027505;28;20069;-83
2024/01/18 01:11:26;;;;;;;1.80;1.70;;;;;;;;;;5031112;28;20056;-84
2024/01/18 01:14:07;;;;;;;2.53;1.80;;;;;;;;;;5028651;28;20025;-81
2024/01/18 01:16:33;;;;;;;2.08;1.90;;;;;;;;;;5031312;28;20030;-79
2024/01/18 01:19:08;;;;;;;3.70;1.83;;;;;;;;;;5030289;28;20037;-81
2024/01/18 01:21:34;;;;;;;3.28;2.97;;;;;;;;;;5029585;28;20572;-82
2024/01/18 01:24:00;;;;;;;3.88;2.75;;;;;;;;;;5030879;28;20132;-81
2024/01/18 01:26:25;;;;;;;4.53;2.72;;;;;;;;;;5031472;28;20060;-80
2024/01/18 01:28:51;;;;;;;2.33;1.30;;;;;;;;;;5027938;28;20087;-79
2024/01/18 01:31:16;;;;;;;4.50;2.63;;;;;;;;;;5028529;28;20037;-79
2024/01/18 01:33:42;;;;;;;3.00;2.47;;;;;;;;;;5030087;28;20048;-79
2024/01/18 01:36:07;;;;;;;3.28;2.58;;;;;;;;;;5029501;28;20095;-82
2024/01/18 01:38:33;;;;;;;3.33;2.47;;;;;;;;;;5033153;28;20047;-81
2024/01/18 01:40:59;;;;;;;1.90;1.70;;;;;;;;;;5032257;28;20052;-81
2024/01/18 01:43:27;;;;;;;3.72;2.22;;;;;;;;;;5032923;28;20463;-82
2024/01/18 01:45:53;;;;;;;4.47;2.55;;;;;;;;;;5032989;28;20343;-80
2024/01/18 01:48:19;;;;;;;2.95;2.28;;;;;;;;;;5030222;28;20056;-80
2024/01/18 01:50:49;;;;;;;5.88;5.15;;;;;;;;;;5033800;28;20029;-81
2024/01/18 01:53:15;;;;;;;;;;;;;;;;;;5032875;28;20037;-80
2024/01/18 01:55:42;;;;;;;10.38;3.75;;;;;;;;;;5033136;28;20270;-80
2024/01/18 01:58:10;;;;;;;3.53;3.22;;;;;;;;;;5031136;28;20120;-82
2024/01/18 02:00:35;;;;;;;5.97;4.07;;;;;;;;;;5031857;28;20087;-78
2024/01/18 02:03:01;;;;;;;4.47;3.28;;;;;;;;;;5031572;28;20072;-82
2024/01/18 02:05:27;;;;;;;5.55;3.80;;;;;;;;;;5031234;28;20041;-81
2024/01/18 02:07:54;;;;;;;7.22;4.03;;;;;;;;;;5033786;28;20029;-81
2024/01/18 02:10:21;;;;;;;9.88;5.57;;;;;;;;;;5032619;28;20032;-84
2024/01/18 02:12:48;;;;;;;4.07;3.33;;;;;;;;;;5032476;28;20029;-83
2024/01/18 02:15:14;;;;;;;10.13;5.28;;;;;;;;;;5032853;28;20505;-82
2024/01/18 02:17:39;;;;;;;6.18;3.70;;;;;;;;;;5032923;28;20068;-80
2024/01/18 02:20:05;;;;;;;4.47;3.75;;;;;;;;;;5033351;28;20115;-81
2024/01/18 02:22:32;;;;;;;4.30;2.47;;;;;;;;;;5035569;28;20030;-82
2024/01/18 02:25:22;;;;;;;1.98;1.85;;;;;;;;;;5034297;28;20036;-80
2024/01/18 02:27:57;;;;;;;3.55;3.08;;;;;;;;;;5033504;28;20029;-82
2024/01/18 02:30:23;;;;;;;5.50;3.38;;;;;;;;;;5036100;28;20096;-83
2024/01/18 02:32:49;;;;;;;3.63;2.58;;;;;;;;;;5037060;28;20036;-80
2024/01/18 02:35:17;;;;;;;1.27;1.25;;;;;;;;;;5034864;28;20029;-83
2024/01/18 02:37:43;;;;;;;6.25;3.95;;;;;;;;;;5031875;28;20389;-81
2024/01/18 02:40:09;;;;;;;3.55;2.78;;;;;;;;;;5033405;28;20178;-81
2024/01/18 02:42:35;;;;;;;2.03;1.65;;;;;;;;;;5033636;28;20030;-84
2024/01/18 02:45:03;;;;;;;1.17;0.50;;;;;;;;;;5033480;28;20370;-81
2024/01/18 02:47:29;;;;;;;0.70;0.70;;;;;;;;;;5034676;28;20021;-82
2024/01/18 02:49:58;;;;;;;1.67;0.80;;;;;;;;;;5033486;28;20492;-83
2024/01/18 02:52:23;;;;;;;0.73;0.73;;;;;;;;;;5032768;28;20429;-82
2024/01/18 02:54:49;;;;;;;0.63;0.63;;;;;;;;;;5033160;28;20033;-83
2024/01/18 02:57:15;;;;;;;1.80;1.10;;;;;;;;;;5032598;28;20029;-82
2024/01/18 02:59:40;;;;;;;0.32;0.32;;;;;;;;;;5034021;28;20025;-79
2024/01/18 03:02:06;;;;;;;1.23;1.13;;;;;;;;;;5033195;28;20036;-80
2024/01/18 03:04:31;;;;;;;3.58;1.40;;;;;;;;;;5032448;28;20080;-81
2024/01/18 03:06:59;;;;;;;4.35;2.10;;;;;;;;;;5034574;28;20622;-81
2024/01/18 03:09:26;;;;;;;1.20;1.13;;;;;;;;;;5030287;28;20091;-79
2024/01/18 03:11:51;;;;;;;2.70;1.60;;;;;;;;;;5030149;28;20489;-81
2024/01/18 03:14:16;;;;;;;1.73;1.27;;;;;;;;;;5031167;28;20068;-80
2024/01/18 03:16:42;;;;;;;1.88;1.70;;;;;;;;;;5029954;28;20125;-81
2024/01/18 03:19:12;;;;;;;3.00;1.52;;;;;;;;;;5031932;28;20079;-79
2024/01/18 03:21:38;;;;;;;1.92;1.10;;;;;;;;;;5031133;28;20029;-81
2024/01/18 03:24:03;;;;;;;1.35;1.00;;;;;;;;;;5031344;28;20026;-81
2024/01/18 03:26:29;;;;;;;1.73;1.52;;;;;;;;;;5029364;28;20029;-81
2024/01/18 03:28:55;;;;;;;0.73;0.57;;;;;;;;;;5028877;28;20044;-80
2024/01/18 03:31:20;;;;;;;1.88;1.50;;;;;;;;;;5030272;28;20794;-81
2024/01/18 03:33:46;;;;;;;3.88;1.10;;;;;;;;;;5033323;28;20088;-80
2024/01/18 03:36:11;;;;;;;2.47;1.83;;;;;;;;;;5032066;28;20021;-80
2024/01/18 03:38:37;;;;;;;1.67;1.50;;;;;;;;;;5032054;28;20432;-81
2024/01/18 03:41:03;;;;;;;1.73;1.30;;;;;;;;;;5029353;28;20744;-81
2024/01/18 03:43:28;;;;;;;2.35;1.23;;;;;;;;;;5028888;28;20025;-79
2024/01/18 03:45:54;;;;;;;2.10;1.25;;;;;;;;;;5027992;28;20078;-81
2024/01/18 03:48:22;;;;;;;2.92;2.00;;;;;;;;;;5032592;28;20389;-82
2024/01/18 03:50:47;;;;;;;1.55;1.05;;;;;;;;;;5030307;28;20037;-80
2024/01/18 03:53:12;;;;;;;0.70;0.70;;;;;;;;;;5030862;28;20413;-80
2024/01/18 03:55:38;;;;;;;2.38;1.65;;;;;;;;;;5029729;28;20029;-80
2024/01/18 03:58:04;;;;;;;4.68;2.92;;;;;;;;;;5030659;28;20030;-80
2024/01/18 04:00:29;;;;;;;1.50;1.40;;;;;;;;;;5028796;28;20421;-81
2024/01/18 04:02:55;;;;;;;1.60;1.48;;;;;;;;;;5030322;28;20026;-80
2024/01/18 04:05:21;;;;;;;11.43;2.33;;;;;;;;;;5033632;28;20044;-80
2024/01/18 04:07:49;;;;;;;1.48;1.27;;;;;;;;;;5032840;28;20087;-79
2024/01/18 04:10:14;;;;;;;1.77;1.45;;;;;;;;;;5030232;28;20040;-80
2024/01/18 04:12:43;;;;;;;2.10;1.80;;;;;;;;;;5030933;28;20029;-81
2024/01/18 04:15:09;;;;;;;2.72;1.55;;;;;;;;;;5033280;28;20025;-81
2024/01/18 04:17:35;;;;;;;3.03;1.63;;;;;;;;;;5029614;28;20108;-80
2024/01/18 04:20:05;;;;;;;1.15;1.13;;;;;;;;;;5030066;28;20437;-80
2024/01/18 04:22:31;;;;;;;3.03;1.45;;;;;;;;;;5029197;28;20483;-80
2024/01/18 04:24:57;;;;;;;1.63;1.52;;;;;;;;;;5031732;28;20064;-79
2024/01/18 04:27:33;;;;;;;8.27;2.47;;;;;;;;;;5031690;28;20113;-80
2024/01/18 04:29:59;;;;;;;1.73;1.63;;;;;;;;;;5028870;28;20033;-81
2024/01/18 04:32:27;;;;;;;1.17;0.93;;;;;;;;;;5031612;28;20040;-80
2024/01/18 04:34:53;;;;;;;2.50;1.63;;;;;;;;;;5030484;28;20040;-81
2024/01/18 04:37:18;;;;;;;4.32;2.63;;;;;;;;;;5030251;28;20436;-81
2024/01/18 04:39:44;;;;;;;1.73;1.20;;;;;;;;;;5029211;28;20392;-81
2024/01/18 04:42:09;;;;;;;3.30;1.60;;;;;;;;;;5030451;28;20025;-83
2024/01/18 04:44:35;;;;;;;1.88;1.73;;;;;;;;;;5031958;28;20056;-80
2024/01/18 04:47:06;;;;;;;2.35;2.15;;;;;;;;;;5029715;28;20029;-81
2024/01/18 04:49:31;;;;;;;3.17;1.60;;;;;;;;;;5030594;28;20444;-82
2024/01/18 04:51:57;;;;;;;1.50;1.40;;;;;;;;;;5030684;28;20104;-82
2024/01/18 04:54:22;;;;;;;3.88;1.90;;;;;;;;;;5029781;28;20103;-81
2024/01/18 04:56:48;;;;;;;4.32;2.22;;;;;;;;;;5029746;28;20156;-81
2024/01/18 04:59:13;;;;;;;1.73;1.10;;;;;;;;;;5030772;28;20488;-82
2024/01/18 05:01:40;;;;;;;3.28;2.63;;;;;;;;;;5030215;28;20025;-81
2024/01/18 05:04:06;;;;;;;1.73;1.60;;;;;;;;;;5028767;28;20017;-82
2024/01/18 05:06:31;;;;;;;1.20;0.98;;;;;;;;;;5027812;28;20030;-80
2024/01/18 05:08:57;;;;;;;1.10;1.05;;;;;;;;;;5029477;28;20025;-81
2024/01/18 05:11:23;;;;;;;2.10;1.40;;;;;;;;;;5032734;28;20041;-82
2024/01/18 05:13:48;;;;;;;4.63;1.80;;;;;;;;;;5032706;28;20033;-83
2024/01/18 05:16:13;;;;;;;1.73;1.60;;;;;;;;;;5032399;28;20436;-82
2024/01/18 05:18:39;;;;;;;0.50;0.50;;;;;;;;;;5033704;28;20029;-80
2024/01/18 05:21:04;;;;;;;0.90;0.88;;;;;;;;;;5035336;28;20061;-81
2024/01/18 05:23:30;;;;;;;1.98;1.70;;;;;;;;;;5036442;28;20116;-79
2024/01/18 05:25:55;;;;;;;2.28;1.58;;;;;;;;;;5035066;28;20440;-84
2024/01/18 05:28:24;;;;;;;2.70;1.90;;;;;;;;;;5035739;28;20036;-83
2024/01/18 05:30:50;;;;;;;1.88;1.67;;;;;;;;;;5035550;28;20036;-82
2024/01/18 05:33:15;;;;;;;3.65;2.15;;;;;;;;;;5034951;28;20026;-83
2024/01/18 05:35:41;;;;;;;0.70;0.70;;;;;;;;;;5035330;28;20033;-80
2024/01/18 05:38:06;;;;;;;1.17;1.10;;;;;;;;;;5035153;28;20428;-81
2024/01/18 05:40:35;;;;;;;1.73;1.60;;;;;;;;;;5036499;28;20392;-83
2024/01/18 05:43:12;;;;;;;3.10;1.73;;;;;;;;;;5034742;28;20021;-80
2024/01/18 05:45:38;;;;;;;2.65;1.90;;;;;;;;;;5036930;28;20099;-85
2024/01/18 05:48:06;;;;;;;2.33;2.13;;;;;;;;;;5034604;28;20450;-83
2024/01/18 05:50:32;;;;;;;4.50;2.38;;;;;;;;;;5034773;28;20030;-81
2024/01/18 05:53:01;;;;;;;6.68;3.90;;;;;;;;;;5034765;28;20049;-82
2024/01/18 05:55:26;;;;;;;4.72;2.75;;;;;;;;;;5029743;28;20218;-82
2024/01/18 05:57:52;;;;;;;2.30;1.65;;;;;;;;;;5034159;28;20060;-81
2024/01/18 06:00:18;;;;;;;2.03;1.45;;;;;;;;;;5031030;28;20052;-83
2024/01/18 06:02:46;;;;;;;2.50;1.83;;;;;;;;;;5028803;28;20041;-81
2024/01/18 06:05:12;;;;;;;5.03;2.50;;;;;;;;;;5030310;28;20040;-80
2024/01/18 06:07:43;;;;;;;2.65;2.28;;;;;;;;;;5029253;28;20482;-80
2024/01/18 06:10:09;;;;;;;2.35;2.00;;;;;;;;;;5033705;28;20067;-79
2024/01/18 06:12:34;;;;;;;2.78;2.58;;;;;;;;;;5030343;28;20084;-80
2024/01/18 06:15:01;;;;;;;3.55;2.83;;;;;;;;;;5034197;28;20037;-79
2024/01/18 06:17:27;;;;;;;2.65;2.13;;;;;;;;;;5030328;28;20029;-79
2024/01/18 06:19:53;;;;;;;4.32;2.65;;;;;;;;;;5029636;28;20063;-80
2024/01/18 06:22:19;;;;;;;2.15;1.95;;;;;;;;;;5030893;28;20481;-78
2024/01/18 06:24:44;;;;;;;3.17;2.80;;;;;;;;;;5030049;28;20087;-83
2024/01/18 06:27:09;;;;;;;3.65;3.35;;;;;;;;;;5030855;28;20367;-79
2024/01/18 06:29:36;;;;;;;3.38;2.70;;;;;;;;;;5030030;28;20060;-80
2024/01/18 06:32:02;;;;;;;4.13;3.00;;;;;;;;;;5030545;28;20021;-85
2024/01/18 06:34:28;;;;;;;0.75;0.75;;;;;;;;;;5032888;28;20032;-81
2024/01/18 06:36:53;;;;;;;1.83;1.55;;;;;;;;;;5031340;28;20033;-81
2024/01/18 06:39:18;;;;;;;2.42;1.63;;;;;;;;;;5031311;28;20610;-84
2024/01/18 06:41:44;;;;;;;6.55;2.13;;;;;;;;;;5030137;28;20067;-81
2024/01/18 06:44:10;;;;;;;3.60;2.28;;;;;;;;;;5030460;28;20029;-83
2024/01/18 06:46:35;;;;;;;2.13;1.92;;;;;;;;;;5029549;28;20044;-80
2024/01/18 06:49:01;;;;;;;2.38;0.90;;;;;;;;;;5030269;28;20028;-82
2024/01/18 06:51:28;;;;;;;0.63;0.60;;;;;;;;;;5028904;28;20365;-82
2024/01/18 06:53:54;;;;;;;0.75;0.75;;;;;;;;;;5028000;28;20041;-80
2024/01/18 06:56:19;;;;;;;0.77;0.75;;;;;;;;;;5030312;28;20436;-81
2024/01/18 06:58:45;;;;;;;1.33;1.17;;;;;;;;;;5028806;28;20033;-79
2024/01/18 07:01:13;;;;;;;1.98;1.10;;;;;;;;;;5031200;28;20385;-81
2024/01/18 07:03:40;;;;;;;1.52;0.60;;;;;;;;;;5030296;28;20112;-83
2024/01/18 07:06:08;;;;;;;1.25;0.65;;;;;;;;;;5031224;28;20044;-80
2024/01/18 07:08:34;;;;;;;1.40;0.85;;;;;;;;;;5031406;28;20412;-81
2024/01/18 07:11:01;;;;;;;0.68;0.68;;;;;;;;;;5030696;28;20108;-82
2024/01/18 07:13:27;;;;;;;1.25;0.63;;;;;;;;;;5030457;28;20371;-81
2024/01/18 07:15:53;;;;;;;0.45;0.40;;;;;;;;;;5029203;28;20030;-83
2024/01/18 07:18:18;;;;;;;0.50;0.40;;;;;;;;;;5030157;28;20029;-79
2024/01/18 07:20:44;;;;;;;1.80;0.98;;;;;;;;;;5029250;28;20698;-82
2024/01/18 07:23:09;;;;;;;0.20;0.20;;;;;;;;;;5031897;28;20025;-80
2024/01/18 07:25:37;;;;;;;0.95;0.70;;;;;;;;;;5030366;28;20032;-84
2024/01/18 07:28:03;;;;;;;0.32;0.32;;;;;;;;;;5028514;28;20194;-82
2024/01/18 07:30:29;;;;;;;1.00;0.90;;;;;;;;;;5029412;28;20021;-81
2024/01/18 07:32:54;;;;;;;1.70;1.20;;;;;;;;;;5029235;28;20052;-82
2024/01/18 07:35:19;;;;;;;2.03;0.75;;;;;;;;;;5029568;28;20029;-85
2024/01/18 07:37:45;;;;;;;1.33;0.82;;;;;;;;;;5028597;28;20504;-81
2024/01/18 07:40:11;;;;;;;6.63;2.97;;;;;;;;;;5028463;28;20120;-81
2024/01/18 07:42:36;;;;;;;3.22;2.47;;;;;;;;;;5030155;28;20100;-80
2024/01/18 07:45:02;;;;;;;8.13;3.88;;;;;;;;;;5029202;28;20172;-82
2024/01/18 07:47:27;;;;;;;1.67;1.00;;;;;;;;;;5028829;28;20040;-83
2024/01/18 07:49:53;;;;;;;2.72;1.75;;;;;;;;;;5028094;28;20040;-80
2024/01/18 07:52:18;;;;;;;2.92;1.42;;;;;;;;;;5030190;28;20116;-81
2024/01/18 07:54:44;;;;;;;0.55;0.55;;;;;;;;;;5030034;28;20039;-81
2024/01/18 07:57:09;;;;;;;0.73;0.70;;;;;;;;;;5030576;28;20075;-81
2024/01/18 07:59:35;;;;;;;2.35;1.67;;;;;;;;;;5029919;28;20087;-82
2024/01/18 08:02:00;;;;;;;1.20;0.60;;;;;;;;;;5031050;28;20044;-81
2024/01/18 08:04:26;;;;;;;0.98;0.50;;;;;;;;;;5031422;28;20018;-82
2024/01/18 08:06:52;;;;;;;0.88;0.70;;;;;;;;;;5031077;28;20060;-82
2024/01/18 08:09:18;;;;;;;2.50;0.77;;;;;;;;;;5031499;28;20469;-82
2024/01/18 08:11:43;;;;;;;4.60;2.65;;;;;;;;;;5030619;28;20083;-81
2024/01/18 08:14:09;;;;;;;2.80;2.53;;;;;;;;;;5030384;28;20087;-79
2024/01/18 08:16:34;;;;;;;9.77;5.28;;;;;;;;;;5030297;28;20025;-81
2024/01/18 08:18:59;;;;;;;7.47;3.75;;;;;;;;;;5027333;28;20025;-82
2024/01/18 08:21:25;;;;;;;6.25;4.18;;;;;;;;;;5030572;28;20021;-80
2024/01/18 08:23:50;;;;;;;3.83;2.60;;;;;;;;;;5030466;28;20045;-81
2024/01/18 08:26:16;;;;;;;8.32;4.03;;;;;;;;;;5029916;28;20052;-80
2024/01/18 08:28:43;;;;;;;3.60;1.50;;;;;;;;;;5031899;28;20465;-80
2024/01/18 08:31:08;;;;;;;5.30;2.38;;;;;;;;;;5030911;28;20056;-82
2024/01/18 08:33:34;;;;;;;2.17;0.77;;;;;;;;;;5030330;28;20057;-80
2024/01/18 08:36:00;;;;;;;2.42;1.98;;;;;;;;;;5029666;28;20029;-82
2024/01/18 08:38:26;;;;;;;3.15;2.22;;;;;;;;;;5029594;28;20059;-78
2024/01/18 08:40:52;;;;;;;7.90;4.10;;;;;;;;;;5028051;28;20045;-78
2024/01/18 08:43:19;;;;;;;5.25;2.88;;;;;;;;;;5030216;28;20025;-81
2024/01/18 08:45:45;;;;;;;8.73;3.40;;;;;;;;;;5027024;28;20048;-78
2024/01/18 08:48:10;;;;;;;3.70;2.88;;;;;;;;;;5030142;28;20029;-83
2024/01/18 08:50:36;;;;;;;3.58;2.83;;;;;;;;;;5030213;28;20084;-79
2024/01/18 08:53:01;;;;;;;7.22;3.30;;;;;;;;;;5028547;28;20501;-79
2024/01/18 08:55:27;;;;;;;4.30;3.90;;;;;;;;;;5030078;28;20063;-79
2024/01/18 08:57:53;;;;;;;6.22;3.83;;;;;;;;;;5029924;28;20021;-80
2024/01/18 09:00:18;;;;;;;15.65;6.88;;;;;;;;;;5029916;28;20040;-81
2024/01/18 09:02:47;;;;;;;9.07;4.13;;;;;;;;;;5030315;28;20048;-79
2024/01/18 09:05:13;;;;;;;12.05;2.53;;;;;;;;;;5028397;28;20032;-82
2024/01/18 09:07:39;;;;;;;3.88;3.08;;;;;;;;;;5029619;28;20025;-81
2024/01/18 09:10:07;;;;;;;5.68;2.72;;;;;;;;;;5027485;28;20457;-79
2024/01/18 09:12:32;;;;;;;2.78;1.90;;;;;;;;;;5028041;28;20025;-80
2024/01/18 09:14:58;;;;;;;2.42;2.10;;;;;;;;;;5029816;28;20034;-81
2024/01/18 09:17:23;;;;;;;7.80;3.42;;;;;;;;;;5031119;28;20033;-80
2024/01/18 09:19:49;;;;;;;8.02;3.50;;;;;;;;;;5030781;28;20032;-81
2024/01/18 09:22:15;;;;;;;6.07;3.33;;;;;;;;;;5030257;28;20120;-81
2024/01/18 09:24:42;;;;;;;2.13;1.65;;;;;;;;;;5032452;28;20021;-80
2024/01/18 09:27:09;;;;;;;6.97;3.15;;;;;;;;;;5029074;28;20441;-80
2024/01/18 09:29:36;;;;;;;8.35;4.45;;;;;;;;;;5031679;28;20125;-79
2024/01/18 09:32:02;;;;;;;4.50;3.78;;;;;;;;;;5028421;28;20072;-80
2024/01/18 09:34:27;;;;;;;11.63;4.50;;;;;;;;;;5027828;28;20025;-78
2024/01/18 09:36:53;;;;;;;6.55;3.83;;;;;;;;;;5030209;28;20036;-78
2024/01/18 09:39:18;;;;;;;8.32;4.55;;;;;;;;;;5030464;28;20037;-79
2024/01/18 09:41:54;;;;;;;5.18;3.47;;;;;;;;;;5026901;28;20042;-81
2024/01/18 09:44:25;;;;;;;6.75;3.83;;;;;;;;;;5028579;28;20025;-80
2024/01/18 09:46:52;;;;;;;1.33;0.60;;;;;;;;;;5028888;28;20385;-81
2024/01/18 09:49:18;;;;;;;0.95;0.85;;;;;;;;;;5029871;28;20032;-82
2024/01/18 09:51:44;;;;;;;0.85;0.65;;;;;;;;;;5029355;28;20116;-80
2024/01/18 09:54:10;;;;;;;1.33;0.80;;;;;;;;;;5029635;28;20041;-81
2024/01/18 09:56:43;;;;;;;1.48;0.85;;;;;;;;;;5030214;28;20029;-79
2024/01/18 09:59:18;;;;;;;0.30;0.30;;;;;;;;;;5032141;28;20486;-79
2024/01/18 10:01:47;;;;;;;0.45;0.45;;;;;;;;;;5032301;28;20104;-79
2024/01/18 10:04:14;;;;;;;3.67;1.83;;;;;;;;;;5032293;28;20071;-79
2024/01/18 10:06:40;;;;;;;1.23;0.73;;;;;;;;;;5033352;28;20025;-79
2024/01/18 10:09:10;;;;;;;0.22;0.20;;;;;;;;;;5031792;28;20367;-80
2024/01/18 10:11:36;;;;;;;2.80;0.50;;;;;;;;;;5032022;28;20068;-79
2024/01/18 10:14:02;;;;;;;0.50;0.50;;;;;;;;;;5029715;28;20060;-79
2024/01/18 10:16:32;;;;;;;1.05;0.95;;;;;;;;;;5032394;28;20029;-79
2024/01/18 10:19:02;;;;;;;0.25;0.25;;;;;;;;;;5032369;28;20018;-79
2024/01/18 10:21:28;;;;;;;0.55;0.55;;;;;;;;;;5030489;28;20047;-80
2024/01/18 10:23:54;;;;;;;0.90;0.70;;;;;;;;;;5032047;28;20075;-80
2024/01/18 10:26:29;;;;;;;2.15;0.80;;;;;;;;;;5031978;28;20420;-79
2024/01/18 10:28:55;;;;;;;0.98;0.88;;;;;;;;;;5031941;28;20040;-81
2024/01/18 10:31:20;;;;;;;1.90;1.30;;;;;;;;;;5028342;28;20465;-80
2024/01/18 10:33:49;;;;;;;3.30;1.60;;;;;;;;;;5031028;28;20033;-79
2024/01/18 10:36:14;;;;;;;0.90;0.82;;;;;;;;;;5031677;28;20033;-79
2024/01/18 10:38:41;;;;;;;1.15;1.05;;;;;;;;;;5030084;28;20036;-79
2024/01/18 10:41:07;;;;;;;1.10;1.00;;;;;;;;;;5031640;28;20025;-79
2024/01/18 10:43:34;;;;;;;1.63;1.33;;;;;;;;;;5029402;28;20386;-78
2024/01/18 10:46:00;;;;;;;2.35;1.50;;;;;;;;;;5031117;28;20029;-78
2024/01/18 10:48:26;;;;;;;2.78;1.10;;;;;;;;;;5030971;28;20037;-80
2024/01/18 10:50:56;;;;;;;1.17;0.93;;;;;;;;;;5029843;28;20496;-80
2024/01/18 10:53:26;;;;;;;0.73;0.73;;;;;;;;;;5030493;28;20041;-80
2024/01/18 10:55:52;;;;;;;1.33;1.00;;;;;;;;;;5029431;28;20401;-80
2024/01/18 10:58:19;;;;;;;1.65;1.00;;;;;;;;;;5028351;28;20041;-79
2024/01/18 11:00:48;;;;;;;4.57;2.10;;;;;;;;;;5030890;28;20370;-80
2024/01/18 11:03:17;;;;;;;1.73;0.98;;;;;;;;;;5024920;28;20121;-82
2024/01/18 11:05:47;;;;;;;1.15;1.05;;;;;;;;;;5028967;28;20029;-78
2024/01/18 11:08:13;;;;;;;1.23;1.13;;;;;;;;;;5030658;28;20029;-79
2024/01/18 11:10:43;;;;;;;1.40;1.30;;;;;;;;;;5028300;28;20033;-78
2024/01/18 11:13:09;;;;;;;;;;;;;;;;;;5029732;28;20460;-78
2024/01/18 11:15:41;;;;;;;1.95;1.17;;;;;;;;;;5029803;28;19920;-81
2024/01/18 11:18:15;;;;;;;0.80;0.70;;;;;;;;;;5028993;28;20021;-79
2024/01/18 11:20:59;;;;;;;0.85;0.80;;;;;;;;;;5028622;28;20034;-81
2024/01/18 11:23:43;;;;;;;1.02;0.93;;;;;;;;;;5030398;28;20028;-79
2024/01/18 11:26:21;;;;;;;3.70;1.98;;;;;;;;;;5032000;28;20036;-81
2024/01/18 11:28:46;;;;;;;2.50;1.20;;;;;;;;;;5029133;28;20021;-82
2024/01/18 11:31:12;;;;;;;0.85;0.73;;;;;;;;;;5030212;28;20029;-79
2024/01/18 11:33:38;;;;;;;1.33;1.20;;;;;;;;;;5028141;28;20031;-81
2024/01/18 11:36:03;;;;;;;1.35;1.00;;;;;;;;;;5029623;28;20514;-81
2024/01/18 11:38:32;;;;;;;2.83;1.63;;;;;;;;;;5029822;28;20186;-81
2024/01/18 11:41:04;;;;;;;1.33;0.90;;;;;;;;;;5034792;28;20025;-81
2024/01/18 11:43:58;;;;;;;2.42;1.10;;;;;;;;;;5029915;28;20092;-80
2024/01/18 11:46:38;;;;;;;1.23;0.82;;;;;;;;;;5033065;28;20562;-82
2024/01/18 11:49:05;;;;;;;1.38;0.95;;;;;;;;;;5029102;28;20030;-79
2024/01/18 11:51:31;;;;;;;2.13;1.42;;;;;;;;;;5027998;28;20435;-83
2024/01/18 11:54:04;;;;;;;6.15;1.58;;;;;;;;;;5025739;28;20132;-82
2024/01/18 11:56:33;;;;;;;1.45;0.70;;;;;;;;;;5027914;28;20056;-80
2024/01/18 11:58:58;;;;;;;1.95;1.02;;;;;;;;;;5025818;28;20447;-82
2024/01/18 12:01:27;;;;;;;1.33;1.02;;;;;;;;;;5026665;28;20531;-81
2024/01/18 12:03:53;;;;;;;3.80;1.35;;;;;;;;;;5023863;28;21668;-81
2024/01/18 12:06:19;;;;;;;1.42;1.33;;;;;;;;;;5023868;28;20032;-81
2024/01/18 12:08:45;;;;;;;1.02;0.82;;;;;;;;;;5028445;28;20060;-80
2024/01/18 12:11:13;;;;;;;1.48;1.25;;;;;;;;;;5029425;28;20033;-83
2024/01/18 12:13:39;;;;;;;3.03;0.50;;;;;;;;;;5026700;28;20377;-79
2024/01/18 12:16:05;;;;;;;1.08;0.88;;;;;;;;;;5028791;28;20032;-83
2024/01/18 12:18:42;;;;;;;1.20;0.57;;;;;;;;;;5026993;28;20029;-77
2024/01/18 12:21:08;;;;;;;1.92;1.17;;;;;;;;;;5027128;28;20036;-79
2024/01/18 12:23:34;;;;;;;1.77;0.70;;;;;;;;;;5025214;28;20029;-81
2024/01/18 12:25:59;;;;;;;0.30;0.30;;;;;;;;;;5030363;28;20109;-79
2024/01/18 12:28:29;;;;;;;0.50;0.50;;;;;;;;;;5029980;28;20104;-81
2024/01/18 12:31:00;;;;;;;0.60;0.60;;;;;;;;;;5031209;28;20072;-80
2024/01/18 12:33:30;;;;;;;1.25;0.82;;;;;;;;;;5029676;28;20113;-81
2024/01/18 12:35:58;;;;;;;0.55;0.55;;;;;;;;;;5029549;28;20449;-79
2024/01/18 12:38:24;;;;;;;0.55;0.55;;;;;;;;;;5028453;28;20395;-79
2024/01/18 12:40:50;;;;;;;1.08;0.52;;;;;;;;;;5026962;28;20525;-83
2024/01/18 12:43:16;;;;;;;1.02;0.85;;;;;;;;;;5028924;28;20108;-81
2024/01/18 12:45:42;;;;;;;0.70;0.68;;;;;;;;;;5028640;28;20021;-81
2024/01/18 12:48:08;;;;;;;0.63;0.40;;;;;;;;;;5026889;28;20041;-79
2024/01/18 12:50:36;;;;;;;0.55;0.55;;;;;;;;;;5029562;28;20036;-81
2024/01/18 12:53:02;;;;;;;0.40;0.40;;;;;;;;;;5026076;28;20049;-80
2024/01/18 12:55:30;;;;;;;1.23;0.80;;;;;;;;;;5029794;28;20029;-80
2024/01/18 12:57:58;;;;;;;0.65;0.63;;;;;;;;;;5029551;28;20025;-82
2024/01/18 13:00:23;;;;;;;0.75;0.65;;;;;;;;;;5028019;28;20026;-80
2024/01/18 13:02:52;;;;;;;0.40;0.40;;;;;;;;;;5029158;28;20029;-82
2024/01/18 13:05:18;;;;;;;0.45;0.45;;;;;;;;;;5027601;28;20401;-80
2024/01/18 13:07:46;;;;;;;1.73;0.68;;;;;;;;;;5029473;28;20032;-80
2024/01/18 13:10:13;;;;;;;1.30;1.20;;;;;;;;;;5030789;28;20040;-81
2024/01/18 13:12:39;;;;;;;0.50;0.40;;;;;;;;;;5029289;28;20489;-81
2024/01/18 13:15:05;;;;;;;0.50;0.50;;;;;;;;;;5030016;28;20033;-80
2024/01/18 13:17:31;;;;;;;1.17;0.93;;;;;;;;;;5030317;28;20053;-80
2024/01/18 13:19:56;;;;;;;4.47;0.90;;;;;;;;;;5029906;28;20063;-82
2024/01/18 13:22:22;;;;;;;0.68;0.68;;;;;;;;;;5028589;28;20053;-81
2024/01/18 13:24:47;;;;;;;0.73;0.60;;;;;;;;;;5029625;28;20029;-81
2024/01/18 13:27:13;;;;;;;2.08;0.68;;;;;;;;;;5028415;28;20033;-81
2024/01/18 13:29:38;;;;;;;0.50;0.30;;;;;;;;;;5030011;28;20370;-83
2024/01/18 13:32:04;;;;;;;0.20;0.20;;;;;;;;;;5030428;28;20033;-81
2024/01/18 13:34:38;;;;;;;0.85;0.85;;;;;;;;;;5033477;28;20791;-81
2024/01/18 13:37:06;;;;;;;0.75;0.47;;;;;;;;;;5032530;28;20482;-82
2024/01/18 13:39:32;;;;;;;0.75;0.75;;;;;;;;;;5032689;28;20104;-80
2024/01/18 13:41:58;;;;;;;1.23;0.65;;;;;;;;;;5033664;28;20125;-81
2024/01/18 13:44:24;;;;;;;0.40;0.40;;;;;;;;;;5033317;28;20052;-81
2024/01/18 13:46:49;;;;;;;1.40;0.90;;;;;;;;;;5033246;28;20108;-80
2024/01/18 13:49:15;;;;;;;2.78;0.75;;;;;;;;;;5032168;28;20024;-83
2024/01/18 13:51:40;;;;;;;0.90;0.73;;;;;;;;;;5032667;28;20029;-82
2024/01/18 13:54:06;;;;;;;0.40;0.40;;;;;;;;;;5032936;28;20638;-80
2024/01/18 13:56:31;;;;;;;0.60;0.60;;;;;;;;;;5033487;28;20033;-81
2024/01/18 13:58:57;;;;;;;0.50;0.50;;;;;;;;;;5034192;28;20029;-82
2024/01/18 14:01:22;;;;;;;0.50;0.50;;;;;;;;;;5031778;28;20025;-80
2024/01/18 14:03:49;;;;;;;1.48;1.17;;;;;;;;;;5033342;28;20136;-81
2024/01/18 14:06:16;;;;;;;0.50;0.50;;;;;;;;;;5033383;28;20040;-81
2024/01/18 14:08:46;;;;;;;1.58;0.93;;;;;;;;;;5033492;28;20553;-83
2024/01/18 14:11:12;;;;;;;0.45;0.43;;;;;;;;;;5033536;28;20026;-80
2024/01/18 14:13:38;;;;;;;0.32;0.32;;;;;;;;;;5033200;28;20057;-81
2024/01/18 14:16:04;;;;;;;0.45;0.45;;;;;;;;;;5031150;28;20060;-79
2024/01/18 14:18:29;;;;;;;3.00;1.00;;;;;;;;;;5030083;28;20030;-79
2024/01/18 14:20:57;;;;;;;1.38;0.95;;;;;;;;;;5030608;28;20603;-83
2024/01/18 14:23:22;;;;;;;1.55;0.60;;;;;;;;;;5033124;28;20033;-80
2024/01/18 14:25:48;;;;;;;0.45;0.45;;;;;;;;;;5030222;28;20029;-84
2024/01/18 14:28:13;;;;;;;1.95;0.70;;;;;;;;;;5032541;28;20440;-80
2024/01/18 14:30:38;;;;;;;1.95;1.17;;;;;;;;;;5031882;28;20033;-81
2024/01/18 14:33:05;;;;;;;2.60;1.67;;;;;;;;;;5029950;28;20052;-81
2024/01/18 14:35:31;;;;;;;0.98;0.85;;;;;;;;;;5031585;28;20037;-79
2024/01/18 14:37:57;;;;;;;1.52;0.85;;;;;;;;;;5036016;28;20491;-81
2024/01/18 14:40:22;;;;;;;1.17;0.80;;;;;;;;;;5034051;28;20029;-80
2024/01/18 14:42:48;;;;;;;0.45;0.45;;;;;;;;;;5037106;28;20473;-80